Tylertown, MS

5:42 AM CST on February 13, 2016 (GMT -0600)
Smithburg Rd | | Change Station
CLOSE
Current Station
Personal Weather Station
Location: Progress, MS
Elevation: 300 ft
Nearby Weather Stations

Elev 300 ft 31.03 °N, 90.28 °W | Updated 1 minute ago

Clear
Clear
42.0 °F
Feels Like 42 °F
N
2.0
Wind Variable Wind from NNE
Gusts 2.0 mph

Today
High -- | Low -- °F
--% Chance of Precip.
Yesterday
High -- | Low -- °F
Precip. -- in
Pressure 30.37 in
Visibility 10.0 miles
Clouds Clear
Windchill 42 °F
Dew Point 34 °F
Humidity 74%
Rainfall 0.00 in
Snow Depth Not available.
6:43 AM 5:45 PM
Waxing Crescent, 30% visible
METAR KMCB 131053Z AUTO 02004KT 10SM CLR 07/01 A3037 RMK AO2 SLP282 T00670006
Pressure 30.37 in
Visibility 10.0 miles
Clouds Clear
Windchill 42 °F
Dew Point 34 °F
Humidity 74%
Rainfall 0.00 in
Snow Depth Not available.
6:43 AM 5:45 PM
Waxing Crescent, 30% visible
METAR KMCB 131053Z AUTO 02004KT 10SM CLR 07/01 A3037 RMK AO2 SLP282 T00670006

10-Day Weather Forecast

Almanac

Astronomy

Feb. 13, 2016 Rise Set
Actual Time
Civil Twilight
Nautical Twilight
Astronomical Twilight
Moon
Length of Visible Light
Length of Day
Tomorrow will be .
, % of the Moon is Illuminated

Today's Extremes

State Highs State Lows

Community

WunderPhotos

Upload Photos

1,892,541 photos uploaded!

WunderBlog® & News

Nearby

Air Quality

  Air Quality AQ Index Pollutant
Not available.

Snow Depth

Station Depth Elevation

Earthquake Activity

City Distance Mag. Time & Date
Minimum magnitude displayed is 2.5.

Coastal Water Temperatures

Place Temperature

Stations

Nearby Weather Stations

Station Location Temp. Windchill Dew Point Humidity Wind Precip. Elev Updated Type
                   

Watches & Warnings

There are currently no watches in effect.